createdAt,value
2022-08-25T00:00:12.220Z,1.70
2022-08-25T00:02:56.643Z,1.90
2022-08-25T00:05:26.415Z,1.60
2022-08-25T00:07:50.589Z,1.80
2022-08-25T00:10:15.678Z,1.90
2022-08-25T00:12:38.621Z,1.90
2022-08-25T00:15:04.171Z,1.90
2022-08-25T00:17:28.114Z,2.60
2022-08-25T00:19:52.956Z,2.00
2022-08-25T00:22:15.673Z,2.10
2022-08-25T00:24:38.685Z,2.30
2022-08-25T00:27:06.713Z,1.70
2022-08-25T00:29:32.041Z,1.70
2022-08-25T00:31:58.115Z,2.30
2022-08-25T00:34:24.649Z,1.60
2022-08-25T00:36:47.533Z,1.90
2022-08-25T00:39:12.821Z,2.10
2022-08-25T00:41:36.142Z,1.70
2022-08-25T00:44:00.553Z,2.00
2022-08-25T00:46:25.995Z,1.80
2022-08-25T00:48:53.757Z,1.80
2022-08-25T00:51:21.425Z,2.10
2022-08-25T00:53:44.436Z,2.30
2022-08-25T00:56:07.129Z,2.10
2022-08-25T00:58:31.475Z,2.30
2022-08-25T01:00:55.869Z,1.50
2022-08-25T01:03:19.336Z,2.10
2022-08-25T01:05:46.889Z,2.60
2022-08-25T01:08:10.221Z,2.00
2022-08-25T01:10:36.582Z,2.30
2022-08-25T01:13:16.439Z,2.00
2022-08-25T01:15:39.466Z,2.50
2022-08-25T01:18:02.195Z,2.60
2022-08-25T01:20:30.097Z,2.80
2022-08-25T01:22:55.150Z,2.00
2022-08-25T01:25:29.827Z,2.70
2022-08-25T01:27:52.477Z,2.60
2022-08-25T01:30:18.160Z,3.20
2022-08-25T01:32:40.743Z,2.60
2022-08-25T01:35:03.395Z,2.60
2022-08-25T01:37:28.501Z,2.90
2022-08-25T01:39:51.195Z,2.90
2022-08-25T01:42:13.803Z,2.50
2022-08-25T01:44:43.590Z,3.00
2022-08-25T01:47:07.357Z,2.90
2022-08-25T01:49:34.929Z,3.10
2022-08-25T01:52:10.460Z,2.90
2022-08-25T01:54:33.478Z,2.70
2022-08-25T01:56:58.524Z,3.30
2022-08-25T01:59:24.265Z,3.20
2022-08-25T02:01:49.761Z,3.80
2022-08-25T02:04:15.016Z,3.20
2022-08-25T02:06:39.288Z,2.90
2022-08-25T02:09:08.174Z,3.20
2022-08-25T02:11:33.951Z,3.30
2022-08-25T02:13:56.538Z,3.00
2022-08-25T02:16:30.161Z,2.50
2022-08-25T02:18:54.992Z,3.60
2022-08-25T02:21:20.196Z,3.20
2022-08-25T02:23:43.046Z,3.90
2022-08-25T02:26:05.721Z,4.20
2022-08-25T02:28:28.543Z,3.60
2022-08-25T02:31:00.143Z,3.40
2022-08-25T02:33:24.276Z,3.00
2022-08-25T02:35:49.934Z,3.20
2022-08-25T02:38:14.787Z,3.60
2022-08-25T02:40:37.538Z,2.90
2022-08-25T02:43:00.286Z,3.30
2022-08-25T02:45:23.270Z,3.30
2022-08-25T02:47:46.905Z,3.10
2022-08-25T02:50:10.880Z,3.40
2022-08-25T02:52:35.983Z,3.60
2022-08-25T02:54:58.785Z,3.60
2022-08-25T02:57:24.141Z,2.60
2022-08-25T02:59:48.662Z,3.50
2022-08-25T03:02:14.153Z,3.40
2022-08-25T03:04:36.792Z,2.90
2022-08-25T03:06:59.738Z,3.90
2022-08-25T03:09:23.306Z,3.50
2022-08-25T03:11:48.203Z,3.40
2022-08-25T03:14:11.379Z,3.80
2022-08-25T03:16:34.443Z,3.40
2022-08-25T03:18:57.797Z,3.10
2022-08-25T03:21:22.876Z,3.60
2022-08-25T03:23:48.670Z,3.80
2022-08-25T03:26:30.152Z,3.40
2022-08-25T03:28:55.574Z,3.40
2022-08-25T03:31:19.202Z,3.10
2022-08-25T03:33:42.139Z,3.90
2022-08-25T03:36:05.809Z,3.80
2022-08-25T03:38:28.447Z,3.40
2022-08-25T03:40:51.744Z,3.60
2022-08-25T03:43:14.659Z,2.90
2022-08-25T03:45:42.931Z,3.80
2022-08-25T03:48:05.696Z,3.90
2022-08-25T03:50:28.742Z,3.50
2022-08-25T03:52:53.975Z,3.80
2022-08-25T03:55:22.992Z,3.40
2022-08-25T03:57:45.769Z,3.70
2022-08-25T04:00:12.512Z,3.70
2022-08-25T04:02:37.442Z,3.80
2022-08-25T04:05:02.719Z,3.30
2022-08-25T04:07:30.107Z,3.80
2022-08-25T04:09:55.013Z,3.30
2022-08-25T04:12:20.177Z,4.00
2022-08-25T04:14:47.961Z,4.20
2022-08-25T04:17:10.523Z,3.60
2022-08-25T04:19:33.561Z,4.80
2022-08-25T04:21:56.831Z,4.30
2022-08-25T04:24:22.118Z,3.70
2022-08-25T04:26:48.261Z,3.50
2022-08-25T04:29:14.537Z,4.70
2022-08-25T04:31:39.252Z,4.70
2022-08-25T04:34:14.818Z,4.50
2022-08-25T04:36:52.569Z,3.70
2022-08-25T04:39:20.607Z,3.60
2022-08-25T04:41:43.458Z,4.70
2022-08-25T04:44:06.512Z,3.80
2022-08-25T04:46:32.914Z,3.60
2022-08-25T04:48:56.421Z,4.30
2022-08-25T04:51:20.467Z,5.30
2022-08-25T04:53:45.705Z,4.60
2022-08-25T04:56:15.272Z,4.50
2022-08-25T04:58:41.279Z,6.20
2022-08-25T05:01:11.170Z,5.30
2022-08-25T05:03:34.328Z,5.10
2022-08-25T05:05:57.419Z,4.80
2022-08-25T05:08:22.423Z,8.50
2022-08-25T05:10:45.009Z,5.10
2022-08-25T05:13:10.808Z,5.50
2022-08-25T05:15:51.669Z,4.80
2022-08-25T05:18:14.657Z,5.00
2022-08-25T05:20:40.151Z,4.30
2022-08-25T05:23:02.771Z,5.00
2022-08-25T05:25:25.823Z,5.30
2022-08-25T05:27:48.705Z,4.70
2022-08-25T05:30:11.933Z,5.00
2022-08-25T05:32:36.975Z,4.40
2022-08-25T05:35:01.953Z,4.60
2022-08-25T05:37:24.606Z,4.70
2022-08-25T05:39:47.287Z,4.90
2022-08-25T05:42:09.937Z,4.90
2022-08-25T05:44:32.593Z,4.60
2022-08-25T05:46:57.516Z,4.50
2022-08-25T05:49:20.138Z,5.30
2022-08-25T05:51:45.473Z,5.10
2022-08-25T05:54:08.220Z,4.50
2022-08-25T05:56:31.435Z,4.30
2022-08-25T05:58:54.150Z,6.00
2022-08-25T06:01:40.523Z,5.30
2022-08-25T06:04:06.942Z,5.80
2022-08-25T06:06:29.813Z,4.80
2022-08-25T06:08:55.047Z,4.50
2022-08-25T06:11:21.140Z,5.70
2022-08-25T06:13:46.752Z,5.30
2022-08-25T06:16:10.201Z,4.60
2022-08-25T06:18:33.197Z,5.90
2022-08-25T06:20:55.960Z,6.00
2022-08-25T06:23:21.151Z,5.50
2022-08-25T06:25:49.568Z,5.90
2022-08-25T06:28:14.539Z,4.90
2022-08-25T06:30:41.789Z,5.40
2022-08-25T06:33:04.613Z,5.60
2022-08-25T06:35:29.891Z,5.90
2022-08-25T06:37:53.045Z,6.30
2022-08-25T06:40:19.034Z,5.90
2022-08-25T06:42:48.202Z,6.40
2022-08-25T06:45:11.104Z,5.00
2022-08-25T06:47:34.713Z,5.20
2022-08-25T06:49:58.694Z,5.70
2022-08-25T06:52:21.341Z,6.70
2022-08-25T06:54:53.734Z,5.00
2022-08-25T06:57:16.875Z,4.50
2022-08-25T06:59:41.600Z,4.60
2022-08-25T07:02:05.477Z,4.60
2022-08-25T07:04:31.169Z,5.00
2022-08-25T07:06:53.794Z,5.20
2022-08-25T07:09:17.138Z,4.70
2022-08-25T07:11:45.428Z,6.20
2022-08-25T07:14:11.078Z,5.40
2022-08-25T07:16:35.870Z,5.20
2022-08-25T07:19:02.529Z,5.40
2022-08-25T07:21:32.638Z,5.30
2022-08-25T07:23:58.740Z,5.20
2022-08-25T07:26:39.274Z,4.50
2022-08-25T07:29:03.841Z,5.10
2022-08-25T07:31:29.549Z,5.60
2022-08-25T07:34:11.904Z,4.90
2022-08-25T07:36:38.542Z,4.80
2022-08-25T07:39:06.000Z,5.30
2022-08-25T07:41:28.575Z,4.80
2022-08-25T07:43:54.888Z,4.50
2022-08-25T07:46:17.615Z,4.60
2022-08-25T07:48:42.751Z,4.60
2022-08-25T07:51:18.116Z,5.20
2022-08-25T07:53:41.737Z,4.50
2022-08-25T07:56:09.098Z,4.30
2022-08-25T07:58:34.413Z,5.20
2022-08-25T08:00:57.352Z,4.60
2022-08-25T08:03:35.527Z,4.60
2022-08-25T08:06:08.652Z,4.40
2022-08-25T08:08:33.778Z,4.70
2022-08-25T08:11:04.622Z,4.50
2022-08-25T08:13:30.519Z,5.20
2022-08-25T08:15:53.674Z,5.70
2022-08-25T08:18:18.673Z,4.40
2022-08-25T08:20:43.878Z,4.20
2022-08-25T08:23:06.717Z,4.30
2022-08-25T08:25:32.445Z,4.60
2022-08-25T08:27:58.922Z,4.40
2022-08-25T08:30:26.041Z,3.60
2022-08-25T08:33:09.097Z,4.30
2022-08-25T08:35:35.968Z,4.20
2022-08-25T08:37:58.644Z,4.10
2022-08-25T08:40:21.367Z,4.20
2022-08-25T08:42:47.195Z,3.40
2022-08-25T08:45:12.825Z,3.90
2022-08-25T08:47:45.001Z,4.20
2022-08-25T08:50:28.583Z,4.20
2022-08-25T08:53:01.925Z,4.00
2022-08-25T08:55:31.316Z,4.40
2022-08-25T08:57:56.866Z,4.00
2022-08-25T09:00:24.409Z,4.50
2022-08-25T09:02:53.364Z,5.10
2022-08-25T09:05:19.388Z,4.90
2022-08-25T09:07:45.336Z,5.00
2022-08-25T09:10:12.594Z,4.50
2022-08-25T09:12:35.266Z,5.00
2022-08-25T09:15:12.817Z,4.60
2022-08-25T09:17:56.571Z,4.00
2022-08-25T09:20:45.815Z,4.70
2022-08-25T09:23:27.948Z,4.60
2022-08-25T09:26:09.587Z,4.60
2022-08-25T09:28:55.352Z,4.30
2022-08-25T09:31:29.366Z,4.30
2022-08-25T09:33:55.769Z,4.90
2022-08-25T09:36:18.346Z,4.50
2022-08-25T09:38:45.007Z,3.50
2022-08-25T09:41:10.118Z,3.50
2022-08-25T09:43:35.367Z,3.50
2022-08-25T09:45:58.295Z,4.10
2022-08-25T09:48:26.024Z,4.30
2022-08-25T09:50:49.685Z,4.10
2022-08-25T09:53:17.383Z,4.00
2022-08-25T09:55:43.117Z,3.90
2022-08-25T09:58:15.147Z,4.10
2022-08-25T10:00:42.590Z,2.90
2022-08-25T10:03:10.587Z,3.10
2022-08-25T10:05:35.629Z,2.00
2022-08-25T10:08:00.251Z,2.10
2022-08-25T10:10:26.217Z,2.10
2022-08-25T10:12:51.436Z,2.20
2022-08-25T10:15:30.322Z,2.40
2022-08-25T10:17:53.263Z,2.20
2022-08-25T10:20:18.529Z,2.10
2022-08-25T10:22:42.400Z,1.80
2022-08-25T10:25:07.368Z,2.10
2022-08-25T10:27:33.145Z,2.60
2022-08-25T10:30:08.903Z,2.00
2022-08-25T10:32:34.599Z,2.30
2022-08-25T10:34:59.662Z,2.00
2022-08-25T10:37:27.382Z,2.00
2022-08-25T10:40:11.150Z,1.50
2022-08-25T10:42:42.759Z,1.60
2022-08-25T10:45:40.418Z,1.60
2022-08-25T10:48:03.088Z,1.50
2022-08-25T10:50:45.357Z,1.80
2022-08-25T10:53:30.031Z,2.10
2022-08-25T10:55:55.947Z,2.00
2022-08-25T10:58:31.010Z,1.80
2022-08-25T11:00:59.934Z,1.80
2022-08-25T11:03:35.186Z,1.80
2022-08-25T11:06:03.362Z,1.70
2022-08-25T11:08:34.671Z,2.10
2022-08-25T11:11:05.793Z,1.60
2022-08-25T11:13:42.667Z,2.20
2022-08-25T11:16:19.882Z,1.80
2022-08-25T11:18:48.813Z,2.30
2022-08-25T11:21:18.088Z,2.20
2022-08-25T11:23:52.908Z,2.30
2022-08-25T11:26:20.954Z,2.20
2022-08-25T11:28:52.812Z,2.30
2022-08-25T11:31:16.660Z,2.00
2022-08-25T11:33:39.436Z,1.90
2022-08-25T11:36:05.721Z,2.10
2022-08-25T11:38:58.466Z,1.80
2022-08-25T11:41:47.044Z,1.70
2022-08-25T11:44:31.351Z,2.20
2022-08-25T11:47:00.113Z,2.20
2022-08-25T11:49:22.957Z,2.20
2022-08-25T11:51:48.303Z,2.00
2022-08-25T11:54:20.922Z,2.80
2022-08-25T11:56:50.962Z,1.80
2022-08-25T11:59:33.677Z,2.30
2022-08-25T12:01:56.504Z,1.80
2022-08-25T12:04:44.440Z,2.30
2022-08-25T12:07:11.346Z,2.00
2022-08-25T12:09:35.019Z,1.80
2022-08-25T12:11:58.491Z,1.90
2022-08-25T12:14:24.688Z,1.80
2022-08-25T12:16:50.943Z,2.00
2022-08-25T12:19:25.660Z,2.00
2022-08-25T12:21:48.584Z,1.90
2022-08-25T12:24:13.483Z,1.70
2022-08-25T12:26:46.136Z,2.00
2022-08-25T12:29:12.391Z,1.90
2022-08-25T12:31:44.251Z,1.90
2022-08-25T12:34:24.245Z,2.20
2022-08-25T12:36:58.049Z,2.20
2022-08-25T12:39:25.695Z,1.60
2022-08-25T12:41:56.787Z,1.60
2022-08-25T12:44:57.868Z,1.70
2022-08-25T12:47:23.482Z,1.80
2022-08-25T12:49:49.261Z,2.00
2022-08-25T12:52:28.050Z,1.60
2022-08-25T12:55:00.417Z,1.90
2022-08-25T12:57:43.825Z,1.70
2022-08-25T13:03:07.825Z,1.80
2022-08-25T13:05:33.637Z,2.00
2022-08-25T13:08:18.201Z,1.90
2022-08-25T13:10:42.399Z,1.80
2022-08-25T13:13:07.153Z,2.10
2022-08-25T13:15:35.937Z,2.20
2022-08-25T13:18:14.362Z,1.80
2022-08-25T13:20:37.339Z,1.80
2022-08-25T13:23:04.050Z,2.10
2022-08-25T13:25:32.309Z,1.70
2022-08-25T13:27:58.485Z,2.10
2022-08-25T13:30:28.706Z,1.90
2022-08-25T13:32:51.931Z,1.70
2022-08-25T13:35:17.769Z,2.40
2022-08-25T13:37:45.851Z,2.20
2022-08-25T13:40:10.247Z,2.20
2022-08-25T13:42:36.780Z,2.00
2022-08-25T13:44:59.525Z,1.60
2022-08-25T13:47:43.542Z,2.20
2022-08-25T13:50:28.572Z,2.10
2022-08-25T13:52:53.628Z,1.70
2022-08-25T13:55:28.702Z,1.30
2022-08-25T13:57:52.347Z,1.70
2022-08-25T14:00:25.161Z,1.60
2022-08-25T14:02:54.818Z,2.10
2022-08-25T14:05:35.943Z,2.30
2022-08-25T14:08:15.789Z,1.80
2022-08-25T14:10:44.910Z,1.70
2022-08-25T14:13:09.113Z,2.10
2022-08-25T14:15:38.506Z,2.30
2022-08-25T14:18:03.029Z,1.80
2022-08-25T14:20:29.366Z,1.70
2022-08-25T14:22:55.502Z,1.90
2022-08-25T14:25:20.867Z,1.80
2022-08-25T14:28:06.725Z,2.10
2022-08-25T14:30:32.986Z,2.00
2022-08-25T14:32:56.509Z,1.70
2022-08-25T14:35:19.456Z,2.10
2022-08-25T14:37:45.014Z,2.40
2022-08-25T14:40:08.007Z,2.40
2022-08-25T14:42:34.444Z,1.80
2022-08-25T14:44:57.123Z,1.70
2022-08-25T14:47:22.299Z,1.70
2022-08-25T14:49:48.270Z,1.90
2022-08-25T14:52:18.133Z,2.40
2022-08-25T14:54:40.969Z,2.00
2022-08-25T14:57:04.188Z,2.30
2022-08-25T14:59:34.158Z,2.50
2022-08-25T15:01:57.412Z,2.10
2022-08-25T15:04:26.685Z,2.20
2022-08-25T15:06:57.555Z,2.00
2022-08-25T15:09:23.932Z,2.30
2022-08-25T15:11:50.587Z,2.10
2022-08-25T15:14:15.844Z,1.60
2022-08-25T15:16:44.886Z,2.00
2022-08-25T15:19:08.816Z,2.00
2022-08-25T15:21:36.265Z,2.30
2022-08-25T15:24:01.262Z,1.80
2022-08-25T15:26:24.991Z,2.20
2022-08-25T15:28:51.776Z,1.60
2022-08-25T15:31:16.186Z,1.60
2022-08-25T15:33:41.864Z,2.00
2022-08-25T15:36:07.703Z,1.90
2022-08-25T15:38:40.850Z,1.90
2022-08-25T15:41:07.581Z,1.30
2022-08-25T15:43:33.171Z,1.70
2022-08-25T15:45:56.159Z,2.10
2022-08-25T15:48:18.848Z,1.50
2022-08-25T15:50:42.080Z,1.70
2022-08-25T15:53:04.974Z,1.40
2022-08-25T15:55:31.114Z,2.00
2022-08-25T15:57:56.209Z,1.40
2022-08-25T16:00:20.064Z,1.80
2022-08-25T16:02:45.629Z,2.00
2022-08-25T16:05:10.951Z,3.20
2022-08-25T16:07:33.624Z,1.80
2022-08-25T16:09:59.816Z,1.70
2022-08-25T16:12:25.170Z,2.00
2022-08-25T16:14:54.259Z,1.80
2022-08-25T16:17:17.752Z,1.60
2022-08-25T16:19:40.990Z,1.80
2022-08-25T16:22:06.739Z,1.70
2022-08-25T16:24:34.125Z,1.70
2022-08-25T16:27:11.218Z,1.60
2022-08-25T16:29:37.103Z,1.40
2022-08-25T16:32:02.347Z,1.50
2022-08-25T16:34:30.835Z,1.90
2022-08-25T16:36:56.898Z,1.70
2022-08-25T16:39:24.146Z,1.70
2022-08-25T16:41:46.985Z,2.20
2022-08-25T16:44:12.087Z,1.40
2022-08-25T16:46:35.466Z,1.70
2022-08-25T16:49:03.417Z,1.90
2022-08-25T16:51:29.623Z,2.10
2022-08-25T16:54:14.102Z,1.90
2022-08-25T16:56:43.097Z,1.60
2022-08-25T16:59:08.095Z,1.50
2022-08-25T17:01:31.593Z,1.60
2022-08-25T17:03:57.997Z,1.60
2022-08-25T17:06:23.153Z,1.30
2022-08-25T17:08:51.200Z,2.00
2022-08-25T17:11:17.293Z,2.40
2022-08-25T17:13:44.348Z,1.60
2022-08-25T17:16:07.465Z,2.20
2022-08-25T17:18:30.348Z,1.50
2022-08-25T17:21:00.822Z,1.70
2022-08-25T17:23:23.423Z,2.30
2022-08-25T17:25:48.623Z,1.80
2022-08-25T17:28:12.833Z,2.10
2022-08-25T17:30:38.943Z,2.10
2022-08-25T17:33:01.885Z,2.30
2022-08-25T17:35:24.637Z,1.80
2022-08-25T17:37:49.933Z,2.60
2022-08-25T17:40:16.721Z,2.20
2022-08-25T17:42:45.046Z,2.10
2022-08-25T17:45:07.988Z,1.90
2022-08-25T17:47:30.964Z,2.60
2022-08-25T17:49:53.828Z,2.10
2022-08-25T17:52:17.588Z,1.70
2022-08-25T17:54:44.563Z,2.50
2022-08-25T17:57:07.341Z,2.80
2022-08-25T17:59:32.678Z,2.30
2022-08-25T18:01:56.606Z,2.30
2022-08-25T18:04:21.989Z,2.40
2022-08-25T18:06:45.093Z,2.80
2022-08-25T18:09:09.815Z,3.10
2022-08-25T18:11:33.496Z,4.30
2022-08-25T18:13:56.453Z,2.80
2022-08-25T18:16:22.221Z,2.90
2022-08-25T18:18:45.322Z,2.80
2022-08-25T18:21:11.207Z,2.30
2022-08-25T18:23:33.997Z,2.50
2022-08-25T18:26:00.776Z,2.20
2022-08-25T18:28:25.222Z,2.00
2022-08-25T18:30:48.830Z,2.60
2022-08-25T18:33:12.667Z,2.30
2022-08-25T18:35:35.450Z,10.40
2022-08-25T18:38:17.252Z,2.90
2022-08-25T18:40:40.569Z,2.80
2022-08-25T18:43:05.266Z,2.30
2022-08-25T18:45:32.261Z,2.40
2022-08-25T18:47:57.716Z,2.40
2022-08-25T18:50:21.044Z,2.30
2022-08-25T18:52:46.564Z,2.40
2022-08-25T18:55:09.519Z,2.50
2022-08-25T18:57:41.564Z,2.10
2022-08-25T19:00:06.986Z,2.40
2022-08-25T19:02:30.258Z,2.50
2022-08-25T19:04:52.927Z,2.80
2022-08-25T19:07:18.026Z,2.20
2022-08-25T19:09:43.628Z,2.40
2022-08-25T19:12:07.345Z,2.10
2022-08-25T19:14:34.743Z,2.50
2022-08-25T19:17:01.406Z,2.70
2022-08-25T19:19:24.332Z,2.60
2022-08-25T19:21:48.284Z,2.90
2022-08-25T19:24:14.826Z,2.10
2022-08-25T19:26:38.213Z,3.10
2022-08-25T19:29:01.599Z,2.40
2022-08-25T19:31:27.764Z,2.70
2022-08-25T19:33:56.310Z,3.00
2022-08-25T19:36:28.109Z,2.70
2022-08-25T19:38:52.497Z,2.50
2022-08-25T19:41:18.480Z,3.10
2022-08-25T19:43:56.147Z,2.80
2022-08-25T19:46:20.941Z,2.60
2022-08-25T19:48:49.357Z,2.60
2022-08-25T19:51:16.145Z,2.60
2022-08-25T19:53:44.881Z,3.50
2022-08-25T19:56:10.809Z,2.40
2022-08-25T19:58:36.291Z,3.70
2022-08-25T20:01:02.302Z,2.40
2022-08-25T20:03:27.141Z,2.90
2022-08-25T20:05:52.136Z,3.10
2022-08-25T20:08:15.091Z,2.90
2022-08-25T20:10:42.079Z,3.50
2022-08-25T20:13:08.372Z,3.20
2022-08-25T20:15:34.494Z,3.10
2022-08-25T20:18:02.739Z,2.60
2022-08-25T20:20:32.535Z,2.40
2022-08-25T20:23:20.624Z,3.40
2022-08-25T20:25:43.575Z,3.00
2022-08-25T20:28:12.713Z,3.00
2022-08-25T20:30:43.672Z,3.20
2022-08-25T20:33:08.275Z,3.20
2022-08-25T20:35:31.309Z,3.00
2022-08-25T20:37:57.010Z,3.90
2022-08-25T20:40:25.288Z,4.00
2022-08-25T20:42:48.772Z,3.30
2022-08-25T20:45:13.003Z,3.60
2022-08-25T20:47:36.469Z,3.20
2022-08-25T20:50:06.742Z,3.50
2022-08-25T20:52:32.235Z,3.10
2022-08-25T20:54:57.667Z,3.50
2022-08-25T20:57:25.754Z,3.20
2022-08-25T20:59:51.912Z,3.40
2022-08-25T21:02:15.099Z,3.10
2022-08-25T21:04:48.890Z,3.30
2022-08-25T21:07:13.364Z,3.30
2022-08-25T21:09:40.964Z,3.30
2022-08-25T21:12:07.344Z,3.80
2022-08-25T21:14:31.093Z,3.30
2022-08-25T21:16:57.464Z,3.40
2022-08-25T21:19:26.672Z,2.90
2022-08-25T21:21:52.382Z,3.40
2022-08-25T21:24:15.325Z,3.20
2022-08-25T21:26:48.482Z,3.50
2022-08-25T21:29:16.707Z,4.00
2022-08-25T21:31:39.855Z,3.50
2022-08-25T21:34:02.970Z,3.60
2022-08-25T21:36:27.832Z,3.20
2022-08-25T21:38:54.344Z,3.00
2022-08-25T21:41:19.973Z,3.30
2022-08-25T21:43:42.981Z,3.50
2022-08-25T21:46:10.976Z,4.00
2022-08-25T21:48:35.881Z,3.00
2022-08-25T21:51:03.957Z,3.60
2022-08-25T21:53:29.772Z,3.30
2022-08-25T21:55:55.922Z,3.70
2022-08-25T21:58:22.331Z,3.70
2022-08-25T22:00:47.236Z,4.10
2022-08-25T22:03:10.027Z,3.70
2022-08-25T22:05:36.125Z,4.00
2022-08-25T22:08:01.280Z,4.10
2022-08-25T22:10:26.830Z,4.30
2022-08-25T22:12:53.060Z,4.30
2022-08-25T22:15:23.483Z,4.50
2022-08-25T22:17:48.195Z,4.40
2022-08-25T22:20:11.539Z,4.20
2022-08-25T22:22:34.384Z,4.20
2022-08-25T22:24:57.373Z,4.10
2022-08-25T22:27:23.465Z,4.50
2022-08-25T22:29:47.956Z,4.20
2022-08-25T22:32:13.485Z,4.40
2022-08-25T22:34:40.169Z,4.40
2022-08-25T22:37:04.810Z,3.80
2022-08-25T22:39:30.022Z,4.40
2022-08-25T22:41:52.803Z,4.30
2022-08-25T22:44:15.405Z,4.40
2022-08-25T22:46:38.420Z,4.40
2022-08-25T22:49:01.034Z,4.00
2022-08-25T22:51:27.844Z,3.80
2022-08-25T22:53:50.858Z,3.80
2022-08-25T22:56:14.374Z,3.90
2022-08-25T22:58:42.428Z,3.30
2022-08-25T23:01:15.887Z,3.80
2022-08-25T23:03:39.559Z,4.50
2022-08-25T23:06:11.881Z,4.20
2022-08-25T23:08:40.846Z,4.30
2022-08-25T23:11:08.322Z,4.00
2022-08-25T23:13:34.238Z,4.10
2022-08-25T23:15:59.958Z,4.60
2022-08-25T23:18:22.615Z,4.50
2022-08-25T23:21:03.784Z,4.10
2022-08-25T23:23:27.628Z,4.00
2022-08-25T23:25:51.429Z,3.90
2022-08-25T23:28:14.413Z,4.20
2022-08-25T23:30:42.727Z,3.70
2022-08-25T23:33:08.033Z,4.00
2022-08-25T23:35:33.156Z,3.80
2022-08-25T23:37:56.635Z,3.70
2022-08-25T23:40:22.294Z,4.00
2022-08-25T23:42:50.254Z,4.00
2022-08-25T23:45:17.724Z,3.60
2022-08-25T23:47:42.797Z,3.80
2022-08-25T23:50:06.068Z,3.70
2022-08-25T23:52:29.432Z,3.70
2022-08-25T23:54:52.203Z,3.90
2022-08-25T23:57:17.076Z,3.70
2022-08-25T23:59:44.099Z,3.90
